sensor_id;sensor_type;location;lat;lon;timestamp;temperature;humidity
67777;DHT22;54576;52.020;5.536;2023-03-08T00:00:33;0.40;99.90
67777;DHT22;54576;52.020;5.536;2023-03-08T00:02:59;0.40;99.90
67777;DHT22;54576;52.020;5.536;2023-03-08T00:05:25;0.40;99.90
67777;DHT22;54576;52.020;5.536;2023-03-08T00:07:54;0.40;99.90
67777;DHT22;54576;52.020;5.536;2023-03-08T00:10:21;0.40;99.90
67777;DHT22;54576;52.020;5.536;2023-03-08T00:12:46;0.40;99.90
67777;DHT22;54576;52.020;5.536;2023-03-08T00:15:12;0.40;99.90
67777;DHT22;54576;52.020;5.536;2023-03-08T00:17:38;0.40;99.90
67777;DHT22;54576;52.020;5.536;2023-03-08T00:20:07;0.40;99.90
67777;DHT22;54576;52.020;5.536;2023-03-08T00:22:36;0.40;99.90
67777;DHT22;54576;52.020;5.536;2023-03-08T00:25:02;0.40;99.90
67777;DHT22;54576;52.020;5.536;2023-03-08T00:27:28;0.40;99.90
67777;DHT22;54576;52.020;5.536;2023-03-08T00:29:54;0.30;99.90
67777;DHT22;54576;52.020;5.536;2023-03-08T00:32:19;0.30;99.90
67777;DHT22;54576;52.020;5.536;2023-03-08T00:34:45;0.30;99.90
67777;DHT22;54576;52.020;5.536;2023-03-08T00:37:12;0.30;99.90
67777;DHT22;54576;52.020;5.536;2023-03-08T00:39:38;0.30;99.90
67777;DHT22;54576;52.020;5.536;2023-03-08T00:42:03;0.30;99.90
67777;DHT22;54576;52.020;5.536;2023-03-08T00:44:29;0.30;99.90
67777;DHT22;54576;52.020;5.536;2023-03-08T00:46:54;0.30;99.90
67777;DHT22;54576;52.020;5.536;2023-03-08T00:49:20;0.30;99.90
67777;DHT22;54576;52.020;5.536;2023-03-08T00:51:47;0.30;99.90
67777;DHT22;54576;52.020;5.536;2023-03-08T00:54:13;0.40;99.90
67777;DHT22;54576;52.020;5.536;2023-03-08T00:56:39;0.40;99.90
67777;DHT22;54576;52.020;5.536;2023-03-08T00:59:04;0.40;99.90
67777;DHT22;54576;52.020;5.536;2023-03-08T01:01:30;0.40;99.90
67777;DHT22;54576;52.020;5.536;2023-03-08T01:03:56;0.40;99.90
67777;DHT22;54576;52.020;5.536;2023-03-08T01:06:21;0.40;99.90
67777;DHT22;54576;52.020;5.536;2023-03-08T01:08:47;0.40;99.90
67777;DHT22;54576;52.020;5.536;2023-03-08T01:11:22;0.40;99.90
67777;DHT22;54576;52.020;5.536;2023-03-08T01:13:50;0.40;99.90
67777;DHT22;54576;52.020;5.536;2023-03-08T01:16:27;0.40;99.90
67777;DHT22;54576;52.020;5.536;2023-03-08T01:18:53;0.40;99.90
67777;DHT22;54576;52.020;5.536;2023-03-08T01:21:20;0.40;99.90
67777;DHT22;54576;52.020;5.536;2023-03-08T01:23:46;0.40;99.90
67777;DHT22;54576;52.020;5.536;2023-03-08T01:26:15;0.40;99.90
67777;DHT22;54576;52.020;5.536;2023-03-08T01:28:41;0.40;99.90
67777;DHT22;54576;52.020;5.536;2023-03-08T01:31:21;0.40;99.90
67777;DHT22;54576;52.020;5.536;2023-03-08T01:33:47;0.50;99.90
67777;DHT22;54576;52.020;5.536;2023-03-08T01:36:15;0.40;99.90
67777;DHT22;54576;52.020;5.536;2023-03-08T01:38:42;0.40;99.90
67777;DHT22;54576;52.020;5.536;2023-03-08T01:41:14;0.40;99.90
67777;DHT22;54576;52.020;5.536;2023-03-08T01:43:40;0.50;99.90
67777;DHT22;54576;52.020;5.536;2023-03-08T01:51:25;0.40;99.90
67777;DHT22;54576;52.020;5.536;2023-03-08T01:53:52;0.40;99.90
67777;DHT22;54576;52.020;5.536;2023-03-08T01:56:19;0.40;99.90
67777;DHT22;54576;52.020;5.536;2023-03-08T01:58:48;0.40;99.90
67777;DHT22;54576;52.020;5.536;2023-03-08T02:01:15;0.30;99.90
67777;DHT22;54576;52.020;5.536;2023-03-08T02:03:40;0.30;99.90
67777;DHT22;54576;52.020;5.536;2023-03-08T02:06:06;0.30;99.90
67777;DHT22;54576;52.020;5.536;2023-03-08T02:08:32;0.30;99.90
67777;DHT22;54576;52.020;5.536;2023-03-08T02:10:59;0.30;99.90
67777;DHT22;54576;52.020;5.536;2023-03-08T02:13:25;0.30;99.90
67777;DHT22;54576;52.020;5.536;2023-03-08T02:15:52;0.30;99.90
67777;DHT22;54576;52.020;5.536;2023-03-08T02:18:20;0.30;99.90
67777;DHT22;54576;52.020;5.536;2023-03-08T02:20:46;0.30;99.90
67777;DHT22;54576;52.020;5.536;2023-03-08T02:23:14;0.30;99.90
67777;DHT22;54576;52.020;5.536;2023-03-08T02:25:41;0.30;99.90
67777;DHT22;54576;52.020;5.536;2023-03-08T02:28:14;0.30;99.90
67777;DHT22;54576;52.020;5.536;2023-03-08T02:30:40;0.30;99.90
67777;DHT22;54576;52.020;5.536;2023-03-08T02:33:05;0.30;99.90
67777;DHT22;54576;52.020;5.536;2023-03-08T02:35:31;0.30;99.90
67777;DHT22;54576;52.020;5.536;2023-03-08T02:37:57;0.30;99.90
67777;DHT22;54576;52.020;5.536;2023-03-08T02:40:22;0.30;99.90
67777;DHT22;54576;52.020;5.536;2023-03-08T02:42:48;0.30;99.90
67777;DHT22;54576;52.020;5.536;2023-03-08T02:45:13;0.30;99.90
67777;DHT22;54576;52.020;5.536;2023-03-08T02:47:39;0.30;99.90
67777;DHT22;54576;52.020;5.536;2023-03-08T02:50:06;0.30;99.90
67777;DHT22;54576;52.020;5.536;2023-03-08T02:52:33;0.30;99.90
67777;DHT22;54576;52.020;5.536;2023-03-08T02:54:58;0.30;99.90
67777;DHT22;54576;52.020;5.536;2023-03-08T02:57:24;0.30;99.90
67777;DHT22;54576;52.020;5.536;2023-03-08T02:59:49;0.30;99.90
67777;DHT22;54576;52.020;5.536;2023-03-08T03:02:15;0.30;99.90
67777;DHT22;54576;52.020;5.536;2023-03-08T03:04:40;0.30;99.90
67777;DHT22;54576;52.020;5.536;2023-03-08T03:07:06;0.30;99.90
67777;DHT22;54576;52.020;5.536;2023-03-08T03:09:33;0.30;99.90
67777;DHT22;54576;52.020;5.536;2023-03-08T03:11:59;0.30;99.90
67777;DHT22;54576;52.020;5.536;2023-03-08T03:14:27;0.30;99.90
67777;DHT22;54576;52.020;5.536;2023-03-08T03:16:52;0.30;99.90
67777;DHT22;54576;52.020;5.536;2023-03-08T03:19:18;0.20;99.90
67777;DHT22;54576;52.020;5.536;2023-03-08T03:21:44;0.20;99.90
67777;DHT22;54576;52.020;5.536;2023-03-08T03:24:09;0.20;99.90
67777;DHT22;54576;52.020;5.536;2023-03-08T03:26:35;0.20;99.90
67777;DHT22;54576;52.020;5.536;2023-03-08T03:29:02;0.20;99.90
67777;DHT22;54576;52.020;5.536;2023-03-08T03:31:27;0.20;99.90
67777;DHT22;54576;52.020;5.536;2023-03-08T03:33:53;0.30;99.90
67777;DHT22;54576;52.020;5.536;2023-03-08T03:36:20;0.30;99.90
67777;DHT22;54576;52.020;5.536;2023-03-08T03:38:47;0.30;99.90
67777;DHT22;54576;52.020;5.536;2023-03-08T03:41:15;0.30;99.90
67777;DHT22;54576;52.020;5.536;2023-03-08T03:43:41;0.30;99.90
67777;DHT22;54576;52.020;5.536;2023-03-08T03:46:10;0.30;99.90
67777;DHT22;54576;52.020;5.536;2023-03-08T03:48:37;0.30;99.90
67777;DHT22;54576;52.020;5.536;2023-03-08T03:51:05;0.30;99.90
67777;DHT22;54576;52.020;5.536;2023-03-08T03:53:33;0.30;99.90
67777;DHT22;54576;52.020;5.536;2023-03-08T03:56:04;0.30;99.90
67777;DHT22;54576;52.020;5.536;2023-03-08T03:58:32;0.30;99.90
67777;DHT22;54576;52.020;5.536;2023-03-08T04:00:57;0.30;99.90
67777;DHT22;54576;52.020;5.536;2023-03-08T04:03:24;0.30;99.90
67777;DHT22;54576;52.020;5.536;2023-03-08T04:05:52;0.40;99.90
67777;DHT22;54576;52.020;5.536;2023-03-08T04:08:17;0.40;99.90
67777;DHT22;54576;52.020;5.536;2023-03-08T04:10:44;0.40;99.90
67777;DHT22;54576;52.020;5.536;2023-03-08T04:13:10;0.40;99.90
67777;DHT22;54576;52.020;5.536;2023-03-08T04:15:36;0.50;99.90
67777;DHT22;54576;52.020;5.536;2023-03-08T04:18:02;0.40;99.90
67777;DHT22;54576;52.020;5.536;2023-03-08T04:20:29;0.40;99.90
67777;DHT22;54576;52.020;5.536;2023-03-08T04:22:54;0.40;99.90
67777;DHT22;54576;52.020;5.536;2023-03-08T04:25:20;0.40;99.90
67777;DHT22;54576;52.020;5.536;2023-03-08T04:27:46;0.40;99.90
67777;DHT22;54576;52.020;5.536;2023-03-08T04:30:12;0.50;99.90
67777;DHT22;54576;52.020;5.536;2023-03-08T04:32:38;0.50;99.90
67777;DHT22;54576;52.020;5.536;2023-03-08T04:35:04;0.50;99.90
67777;DHT22;54576;52.020;5.536;2023-03-08T04:37:30;0.50;99.90
67777;DHT22;54576;52.020;5.536;2023-03-08T04:39:55;0.50;99.90
67777;DHT22;54576;52.020;5.536;2023-03-08T04:42:21;0.50;99.90
67777;DHT22;54576;52.020;5.536;2023-03-08T04:44:47;0.50;99.90
67777;DHT22;54576;52.020;5.536;2023-03-08T04:47:12;0.50;99.90
67777;DHT22;54576;52.020;5.536;2023-03-08T04:49:38;0.50;99.90
67777;DHT22;54576;52.020;5.536;2023-03-08T04:52:04;0.40;99.90
67777;DHT22;54576;52.020;5.536;2023-03-08T04:54:29;0.40;99.90
67777;DHT22;54576;52.020;5.536;2023-03-08T04:56:55;0.50;99.90
67777;DHT22;54576;52.020;5.536;2023-03-08T04:59:20;0.50;99.90
67777;DHT22;54576;52.020;5.536;2023-03-08T05:01:46;0.50;99.90
67777;DHT22;54576;52.020;5.536;2023-03-08T05:04:11;0.50;99.90
67777;DHT22;54576;52.020;5.536;2023-03-08T05:06:37;0.60;99.90
67777;DHT22;54576;52.020;5.536;2023-03-08T05:09:03;0.50;99.90
67777;DHT22;54576;52.020;5.536;2023-03-08T05:11:29;0.50;99.90
67777;DHT22;54576;52.020;5.536;2023-03-08T05:13:57;0.50;99.90
67777;DHT22;54576;52.020;5.536;2023-03-08T05:16:23;0.50;99.90
67777;DHT22;54576;52.020;5.536;2023-03-08T05:18:49;0.50;99.90
67777;DHT22;54576;52.020;5.536;2023-03-08T05:21:17;0.60;99.90
67777;DHT22;54576;52.020;5.536;2023-03-08T05:23:43;0.60;99.90
67777;DHT22;54576;52.020;5.536;2023-03-08T05:26:12;0.60;99.90
67777;DHT22;54576;52.020;5.536;2023-03-08T05:28:38;0.60;99.90
67777;DHT22;54576;52.020;5.536;2023-03-08T05:31:09;0.60;99.90
67777;DHT22;54576;52.020;5.536;2023-03-08T05:33:36;0.70;99.90
67777;DHT22;54576;52.020;5.536;2023-03-08T05:36:02;0.70;99.90
67777;DHT22;54576;52.020;5.536;2023-03-08T05:38:28;0.70;99.90
67777;DHT22;54576;52.020;5.536;2023-03-08T05:40:54;0.70;99.90
67777;DHT22;54576;52.020;5.536;2023-03-08T05:43:20;0.60;99.90
67777;DHT22;54576;52.020;5.536;2023-03-08T05:46:06;0.60;99.90
67777;DHT22;54576;52.020;5.536;2023-03-08T05:48:33;0.50;99.90
67777;DHT22;54576;52.020;5.536;2023-03-08T05:51:07;0.60;99.90
67777;DHT22;54576;52.020;5.536;2023-03-08T05:53:34;0.60;99.90
67777;DHT22;54576;52.020;5.536;2023-03-08T05:58:34;0.60;99.90
67777;DHT22;54576;52.020;5.536;2023-03-08T06:01:08;0.60;99.90
67777;DHT22;54576;52.020;5.536;2023-03-08T06:03:33;0.70;99.90
67777;DHT22;54576;52.020;5.536;2023-03-08T06:05:59;0.70;99.90
67777;DHT22;54576;52.020;5.536;2023-03-08T06:08:24;0.70;99.90
67777;DHT22;54576;52.020;5.536;2023-03-08T06:10:50;0.70;99.90
67777;DHT22;54576;52.020;5.536;2023-03-08T06:13:16;0.70;99.90
67777;DHT22;54576;52.020;5.536;2023-03-08T06:15:42;0.70;99.90
67777;DHT22;54576;52.020;5.536;2023-03-08T06:18:08;0.70;99.90
67777;DHT22;54576;52.020;5.536;2023-03-08T06:20:33;0.70;99.90
67777;DHT22;54576;52.020;5.536;2023-03-08T06:22:59;0.70;99.90
67777;DHT22;54576;52.020;5.536;2023-03-08T06:25:24;0.70;99.90
67777;DHT22;54576;52.020;5.536;2023-03-08T06:27:50;0.70;99.90
67777;DHT22;54576;52.020;5.536;2023-03-08T06:30:16;0.70;99.90
67777;DHT22;54576;52.020;5.536;2023-03-08T06:32:41;0.70;99.90
67777;DHT22;54576;52.020;5.536;2023-03-08T06:35:07;0.80;99.90
67777;DHT22;54576;52.020;5.536;2023-03-08T06:37:34;0.80;99.90
67777;DHT22;54576;52.020;5.536;2023-03-08T06:40:00;0.80;99.90
67777;DHT22;54576;52.020;5.536;2023-03-08T06:42:26;0.80;99.90
67777;DHT22;54576;52.020;5.536;2023-03-08T06:44:52;0.80;99.90
67777;DHT22;54576;52.020;5.536;2023-03-08T06:47:17;0.80;99.90
67777;DHT22;54576;52.020;5.536;2023-03-08T06:49:43;0.80;99.90
67777;DHT22;54576;52.020;5.536;2023-03-08T06:52:08;0.80;99.90
67777;DHT22;54576;52.020;5.536;2023-03-08T06:54:34;0.80;99.90
67777;DHT22;54576;52.020;5.536;2023-03-08T06:56:59;0.90;99.90
67777;DHT22;54576;52.020;5.536;2023-03-08T06:59:25;0.90;99.90
67777;DHT22;54576;52.020;5.536;2023-03-08T07:01:50;0.90;99.90
67777;DHT22;54576;52.020;5.536;2023-03-08T07:04:16;1.00;99.90
67777;DHT22;54576;52.020;5.536;2023-03-08T07:06:43;0.90;99.90
67777;DHT22;54576;52.020;5.536;2023-03-08T07:09:09;0.90;99.90
67777;DHT22;54576;52.020;5.536;2023-03-08T07:11:34;0.90;99.90
67777;DHT22;54576;52.020;5.536;2023-03-08T07:14:00;0.90;99.90
67777;DHT22;54576;52.020;5.536;2023-03-08T07:16:26;0.90;99.90
67777;DHT22;54576;52.020;5.536;2023-03-08T07:18:51;1.00;99.90
67777;DHT22;54576;52.020;5.536;2023-03-08T07:21:18;1.00;99.90
67777;DHT22;54576;52.020;5.536;2023-03-08T07:23:43;1.10;99.90
67777;DHT22;54576;52.020;5.536;2023-03-08T07:26:09;1.10;99.90
67777;DHT22;54576;52.020;5.536;2023-03-08T07:28:35;1.20;99.90
67777;DHT22;54576;52.020;5.536;2023-03-08T07:31:01;1.20;99.90
67777;DHT22;54576;52.020;5.536;2023-03-08T07:33:26;1.30;99.90
67777;DHT22;54576;52.020;5.536;2023-03-08T07:35:52;1.30;99.90
67777;DHT22;54576;52.020;5.536;2023-03-08T07:38:18;1.30;99.90
67777;DHT22;54576;52.020;5.536;2023-03-08T07:40:43;1.30;99.90
67777;DHT22;54576;52.020;5.536;2023-03-08T07:43:09;1.30;99.90
67777;DHT22;54576;52.020;5.536;2023-03-08T07:45:37;1.40;99.90
67777;DHT22;54576;52.020;5.536;2023-03-08T07:48:04;1.40;99.90
67777;DHT22;54576;52.020;5.536;2023-03-08T07:50:30;1.40;99.90
67777;DHT22;54576;52.020;5.536;2023-03-08T07:52:57;1.40;99.90
67777;DHT22;54576;52.020;5.536;2023-03-08T07:55:23;1.40;99.90
67777;DHT22;54576;52.020;5.536;2023-03-08T07:57:49;1.40;99.90
67777;DHT22;54576;52.020;5.536;2023-03-08T08:00:15;1.40;99.90
67777;DHT22;54576;52.020;5.536;2023-03-08T08:02:41;1.50;99.90
67777;DHT22;54576;52.020;5.536;2023-03-08T08:05:07;1.50;99.90
67777;DHT22;54576;52.020;5.536;2023-03-08T08:07:32;1.50;99.90
67777;DHT22;54576;52.020;5.536;2023-03-08T08:09:58;1.50;99.90
67777;DHT22;54576;52.020;5.536;2023-03-08T08:12:23;1.50;99.90
67777;DHT22;54576;52.020;5.536;2023-03-08T08:14:52;1.60;99.90
67777;DHT22;54576;52.020;5.536;2023-03-08T08:17:19;1.60;99.90
67777;DHT22;54576;52.020;5.536;2023-03-08T08:19:45;1.60;99.90
67777;DHT22;54576;52.020;5.536;2023-03-08T08:22:10;1.70;99.90
67777;DHT22;54576;52.020;5.536;2023-03-08T08:24:36;1.70;99.90
67777;DHT22;54576;52.020;5.536;2023-03-08T08:27:02;1.80;99.90
67777;DHT22;54576;52.020;5.536;2023-03-08T08:29:27;1.90;99.90
67777;DHT22;54576;52.020;5.536;2023-03-08T08:31:53;1.90;99.90
67777;DHT22;54576;52.020;5.536;2023-03-08T08:34:19;2.00;99.90
67777;DHT22;54576;52.020;5.536;2023-03-08T08:36:45;2.00;99.90
67777;DHT22;54576;52.020;5.536;2023-03-08T08:39:10;2.10;99.90
67777;DHT22;54576;52.020;5.536;2023-03-08T08:41:36;2.10;99.90
67777;DHT22;54576;52.020;5.536;2023-03-08T08:44:02;2.20;99.90
67777;DHT22;54576;52.020;5.536;2023-03-08T08:46:28;2.20;99.90
67777;DHT22;54576;52.020;5.536;2023-03-08T08:48:56;2.20;99.90
67777;DHT22;54576;52.020;5.536;2023-03-08T08:51:21;2.20;99.90
67777;DHT22;54576;52.020;5.536;2023-03-08T08:53:47;2.30;99.90
67777;DHT22;54576;52.020;5.536;2023-03-08T08:56:18;2.40;99.90
67777;DHT22;54576;52.020;5.536;2023-03-08T08:58:44;2.40;99.90
67777;DHT22;54576;52.020;5.536;2023-03-08T09:01:14;2.50;99.90
67777;DHT22;54576;52.020;5.536;2023-03-08T09:03:40;2.50;99.90
67777;DHT22;54576;52.020;5.536;2023-03-08T09:06:06;2.60;99.90
67777;DHT22;54576;52.020;5.536;2023-03-08T09:08:31;2.60;99.90
67777;DHT22;54576;52.020;5.536;2023-03-08T09:11:04;2.60;99.90
67777;DHT22;54576;52.020;5.536;2023-03-08T09:13:31;2.60;99.90
67777;DHT22;54576;52.020;5.536;2023-03-08T09:15:56;2.60;99.90
67777;DHT22;54576;52.020;5.536;2023-03-08T09:18:22;2.70;99.90
67777;DHT22;54576;52.020;5.536;2023-03-08T09:20:48;2.70;99.90
67777;DHT22;54576;52.020;5.536;2023-03-08T09:23:13;2.70;99.90
67777;DHT22;54576;52.020;5.536;2023-03-08T09:25:39;2.80;99.90
67777;DHT22;54576;52.020;5.536;2023-03-08T09:28:04;2.80;99.90
67777;DHT22;54576;52.020;5.536;2023-03-08T09:30:30;2.90;99.90
67777;DHT22;54576;52.020;5.536;2023-03-08T09:32:57;2.90;99.90
67777;DHT22;54576;52.020;5.536;2023-03-08T09:35:23;2.80;99.90
67777;DHT22;54576;52.020;5.536;2023-03-08T09:37:48;2.90;99.90
67777;DHT22;54576;52.020;5.536;2023-03-08T09:40:23;2.80;99.90
67777;DHT22;54576;52.020;5.536;2023-03-08T09:42:50;2.80;99.90
67777;DHT22;54576;52.020;5.536;2023-03-08T09:45:24;2.90;99.90
67777;DHT22;54576;52.020;5.536;2023-03-08T09:48:08;2.90;99.90
67777;DHT22;54576;52.020;5.536;2023-03-08T09:51:01;2.80;99.90
67777;DHT22;54576;52.020;5.536;2023-03-08T09:53:47;2.90;99.90
67777;DHT22;54576;52.020;5.536;2023-03-08T09:56:20;2.90;99.90
67777;DHT22;54576;52.020;5.536;2023-03-08T09:59:11;2.90;99.90
67777;DHT22;54576;52.020;5.536;2023-03-08T10:01:50;3.00;99.90
67777;DHT22;54576;52.020;5.536;2023-03-08T10:15:22;3.20;99.90
67777;DHT22;54576;52.020;5.536;2023-03-08T10:18:09;3.20;99.90
67777;DHT22;54576;52.020;5.536;2023-03-08T10:20:37;3.40;99.90
67777;DHT22;54576;52.020;5.536;2023-03-08T10:23:14;3.40;99.90
67777;DHT22;54576;52.020;5.536;2023-03-08T10:25:40;3.50;99.90
67777;DHT22;54576;52.020;5.536;2023-03-08T10:28:13;3.50;99.90
67777;DHT22;54576;52.020;5.536;2023-03-08T10:30:49;3.50;99.90
67777;DHT22;54576;52.020;5.536;2023-03-08T10:33:18;3.40;99.90
67777;DHT22;54576;52.020;5.536;2023-03-08T10:35:56;3.40;99.90
67777;DHT22;54576;52.020;5.536;2023-03-08T10:38:26;3.50;99.90
67777;DHT22;54576;52.020;5.536;2023-03-08T10:41:03;3.50;99.90
67777;DHT22;54576;52.020;5.536;2023-03-08T10:43:47;3.60;99.90
67777;DHT22;54576;52.020;5.536;2023-03-08T10:46:16;3.60;99.90
67777;DHT22;54576;52.020;5.536;2023-03-08T10:48:42;3.50;99.90
67777;DHT22;54576;52.020;5.536;2023-03-08T10:51:38;3.50;99.90
67777;DHT22;54576;52.020;5.536;2023-03-08T10:54:05;3.50;99.90
67777;DHT22;54576;52.020;5.536;2023-03-08T10:56:38;3.60;99.90
67777;DHT22;54576;52.020;5.536;2023-03-08T10:59:18;3.70;99.90
67777;DHT22;54576;52.020;5.536;2023-03-08T11:01:56;3.70;99.90
67777;DHT22;54576;52.020;5.536;2023-03-08T11:04:25;3.70;99.90
67777;DHT22;54576;52.020;5.536;2023-03-08T11:06:52;3.70;99.90
67777;DHT22;54576;52.020;5.536;2023-03-08T11:09:31;3.70;99.90
67777;DHT22;54576;52.020;5.536;2023-03-08T11:12:01;3.70;99.90
67777;DHT22;54576;52.020;5.536;2023-03-08T11:14:28;3.80;99.90
67777;DHT22;54576;52.020;5.536;2023-03-08T11:20:22;4.00;99.90
67777;DHT22;54576;52.020;5.536;2023-03-08T11:25:45;4.20;99.70
67777;DHT22;54576;52.020;5.536;2023-03-08T11:28:50;4.10;99.90
67777;DHT22;54576;52.020;5.536;2023-03-08T11:31:38;4.10;99.90
67777;DHT22;54576;52.020;5.536;2023-03-08T11:37:21;4.20;99.90
67777;DHT22;54576;52.020;5.536;2023-03-08T11:40:02;4.20;96.90
67777;DHT22;54576;52.020;5.536;2023-03-08T11:43:24;4.10;97.90
67777;DHT22;54576;52.020;5.536;2023-03-08T11:45:27;4.00;97.70
67777;DHT22;54576;52.020;5.536;2023-03-08T11:48:15;4.10;98.00
67777;DHT22;54576;52.020;5.536;2023-03-08T11:51:03;4.10;99.00
67777;DHT22;54576;52.020;5.536;2023-03-08T11:56:41;4.20;99.00
67777;DHT22;54576;52.020;5.536;2023-03-08T12:01:44;4.30;98.50
67777;DHT22;54576;52.020;5.536;2023-03-08T12:04:17;4.30;99.00
67777;DHT22;54576;52.020;5.536;2023-03-08T12:06:46;4.40;99.40
67777;DHT22;54576;52.020;5.536;2023-03-08T12:09:23;4.50;99.40
67777;DHT22;54576;52.020;5.536;2023-03-08T12:14:28;4.50;97.70
67777;DHT22;54576;52.020;5.536;2023-03-08T12:17:19;4.60;98.10
67777;DHT22;54576;52.020;5.536;2023-03-08T12:19:48;4.60;98.10
67777;DHT22;54576;52.020;5.536;2023-03-08T12:22:23;4.60;97.50
67777;DHT22;54576;52.020;5.536;2023-03-08T12:25:20;4.60;97.10
67777;DHT22;54576;52.020;5.536;2023-03-08T12:28:00;4.60;97.60
67777;DHT22;54576;52.020;5.536;2023-03-08T12:33:02;4.70;96.80
67777;DHT22;54576;52.020;5.536;2023-03-08T12:35:36;4.80;97.70
67777;DHT22;54576;52.020;5.536;2023-03-08T12:38:05;5.00;97.10
67777;DHT22;54576;52.020;5.536;2023-03-08T12:40:41;4.90;96.30
67777;DHT22;54576;52.020;5.536;2023-03-08T12:58:48;4.60;95.10
67777;DHT22;54576;52.020;5.536;2023-03-08T13:01:42;4.50;94.30
67777;DHT22;54576;52.020;5.536;2023-03-08T13:04:30;4.50;95.50
67777;DHT22;54576;52.020;5.536;2023-03-08T13:07:39;4.40;95.20
67777;DHT22;54576;52.020;5.536;2023-03-08T13:15:36;4.50;96.30
67777;DHT22;54576;52.020;5.536;2023-03-08T13:18:12;4.60;96.40
67777;DHT22;54576;52.020;5.536;2023-03-08T13:25:50;4.60;95.40
67777;DHT22;54576;52.020;5.536;2023-03-08T13:28:20;4.60;95.60
67777;DHT22;54576;52.020;5.536;2023-03-08T13:30:55;4.60;95.30
67777;DHT22;54576;52.020;5.536;2023-03-08T13:33:28;4.50;94.50
67777;DHT22;54576;52.020;5.536;2023-03-08T13:36:06;4.50;95.50
67777;DHT22;54576;52.020;5.536;2023-03-08T13:38:38;4.50;95.70
67777;DHT22;54576;52.020;5.536;2023-03-08T13:41:04;4.50;94.00
67777;DHT22;54576;52.020;5.536;2023-03-08T13:43:31;4.50;94.70
67777;DHT22;54576;52.020;5.536;2023-03-08T13:46:00;4.50;94.00
67777;DHT22;54576;52.020;5.536;2023-03-08T13:48:29;4.50;93.80
67777;DHT22;54576;52.020;5.536;2023-03-08T13:50:56;4.50;94.40
67777;DHT22;54576;52.020;5.536;2023-03-08T13:53:34;4.50;94.30
67777;DHT22;54576;52.020;5.536;2023-03-08T13:56:02;4.50;94.80
67777;DHT22;54576;52.020;5.536;2023-03-08T14:01:26;4.60;94.80
67777;DHT22;54576;52.020;5.536;2023-03-08T14:03:53;4.60;94.00
67777;DHT22;54576;52.020;5.536;2023-03-08T14:06:30;4.60;93.50
67777;DHT22;54576;52.020;5.536;2023-03-08T14:08:58;4.50;93.60
67777;DHT22;54576;52.020;5.536;2023-03-08T14:11:28;4.50;94.70
67777;DHT22;54576;52.020;5.536;2023-03-08T14:13:54;4.50;95.00
67777;DHT22;54576;52.020;5.536;2023-03-08T14:16:40;4.50;95.40
67777;DHT22;54576;52.020;5.536;2023-03-08T14:21:59;4.50;95.30
67777;DHT22;54576;52.020;5.536;2023-03-08T14:24:28;4.50;95.20
67777;DHT22;54576;52.020;5.536;2023-03-08T14:27:44;4.60;95.70
67777;DHT22;54576;52.020;5.536;2023-03-08T14:29:45;4.60;95.60
67777;DHT22;54576;52.020;5.536;2023-03-08T14:34:41;4.50;95.70
67777;DHT22;54576;52.020;5.536;2023-03-08T14:39:46;4.30;95.60
67777;DHT22;54576;52.020;5.536;2023-03-08T14:42:21;4.30;96.10
67777;DHT22;54576;52.020;5.536;2023-03-08T14:44:54;4.30;96.50
67777;DHT22;54576;52.020;5.536;2023-03-08T14:47:23;4.30;99.90
67777;DHT22;54576;52.020;5.536;2023-03-08T14:49:55;4.20;96.50
67777;DHT22;54576;52.020;5.536;2023-03-08T14:52:21;4.10;95.70
67777;DHT22;54576;52.020;5.536;2023-03-08T14:54:47;4.00;95.90
67777;DHT22;54576;52.020;5.536;2023-03-08T14:57:25;4.00;96.00
67777;DHT22;54576;52.020;5.536;2023-03-08T14:59:52;4.00;96.50
67777;DHT22;54576;52.020;5.536;2023-03-08T15:02:18;4.00;96.50
67777;DHT22;54576;52.020;5.536;2023-03-08T15:04:45;4.00;96.60
67777;DHT22;54576;52.020;5.536;2023-03-08T15:07:21;4.00;96.40
67777;DHT22;54576;52.020;5.536;2023-03-08T15:09:49;4.10;96.10
67777;DHT22;54576;52.020;5.536;2023-03-08T15:12:15;4.00;95.20
67777;DHT22;54576;52.020;5.536;2023-03-08T15:14:42;3.90;96.00
67777;DHT22;54576;52.020;5.536;2023-03-08T15:17:07;3.90;95.80
67777;DHT22;54576;52.020;5.536;2023-03-08T15:19:33;3.90;95.80
67777;DHT22;54576;52.020;5.536;2023-03-08T15:21:59;3.90;96.40
67777;DHT22;54576;52.020;5.536;2023-03-08T15:24:26;3.90;96.70
67777;DHT22;54576;52.020;5.536;2023-03-08T15:26:51;3.90;96.70
67777;DHT22;54576;52.020;5.536;2023-03-08T15:31:53;3.80;96.80
67777;DHT22;54576;52.020;5.536;2023-03-08T15:34:19;3.80;96.80
67777;DHT22;54576;52.020;5.536;2023-03-08T15:36:46;3.70;97.70
67777;DHT22;54576;52.020;5.536;2023-03-08T15:39:12;3.70;97.40
67777;DHT22;54576;52.020;5.536;2023-03-08T15:41:37;3.70;97.30
67777;DHT22;54576;52.020;5.536;2023-03-08T15:44:03;3.60;97.70
67777;DHT22;54576;52.020;5.536;2023-03-08T15:46:29;3.60;97.60
67777;DHT22;54576;52.020;5.536;2023-03-08T15:48:54;3.60;98.00
67777;DHT22;54576;52.020;5.536;2023-03-08T15:51:21;3.70;98.00
67777;DHT22;54576;52.020;5.536;2023-03-08T15:53:48;3.70;98.20
67777;DHT22;54576;52.020;5.536;2023-03-08T15:56:14;3.80;98.30
67777;DHT22;54576;52.020;5.536;2023-03-08T15:58:40;3.70;98.40
67777;DHT22;54576;52.020;5.536;2023-03-08T16:01:06;3.70;98.60
67777;DHT22;54576;52.020;5.536;2023-03-08T16:03:32;3.70;98.70
67777;DHT22;54576;52.020;5.536;2023-03-08T16:05:59;3.70;99.10
67777;DHT22;54576;52.020;5.536;2023-03-08T16:08:25;3.80;99.80
67777;DHT22;54576;52.020;5.536;2023-03-08T16:10:54;3.80;99.70
67777;DHT22;54576;52.020;5.536;2023-03-08T16:13:20;3.70;99.40
67777;DHT22;54576;52.020;5.536;2023-03-08T16:15:48;3.60;99.50
67777;DHT22;54576;52.020;5.536;2023-03-08T16:18:14;3.60;99.60
67777;DHT22;54576;52.020;5.536;2023-03-08T16:20:40;3.50;99.70
67777;DHT22;54576;52.020;5.536;2023-03-08T16:23:06;3.50;99.90
67777;DHT22;54576;52.020;5.536;2023-03-08T16:25:32;3.50;99.70
67777;DHT22;54576;52.020;5.536;2023-03-08T16:27:57;3.40;99.70
67777;DHT22;54576;52.020;5.536;2023-03-08T16:30:23;3.40;99.90
67777;DHT22;54576;52.020;5.536;2023-03-08T16:32:51;3.40;99.90
67777;DHT22;54576;52.020;5.536;2023-03-08T16:35:17;3.40;99.90
67777;DHT22;54576;52.020;5.536;2023-03-08T16:37:43;3.40;99.90
67777;DHT22;54576;52.020;5.536;2023-03-08T16:40:09;3.40;99.90
67777;DHT22;54576;52.020;5.536;2023-03-08T16:42:35;3.30;99.90
67777;DHT22;54576;52.020;5.536;2023-03-08T16:45:01;3.20;99.90
67777;DHT22;54576;52.020;5.536;2023-03-08T16:47:27;3.20;99.90
67777;DHT22;54576;52.020;5.536;2023-03-08T16:49:56;3.20;99.90
67777;DHT22;54576;52.020;5.536;2023-03-08T16:52:22;3.20;99.90
67777;DHT22;54576;52.020;5.536;2023-03-08T16:54:48;3.20;99.90
67777;DHT22;54576;52.020;5.536;2023-03-08T16:57:14;3.20;99.90
67777;DHT22;54576;52.020;5.536;2023-03-08T16:59:42;3.20;99.90
67777;DHT22;54576;52.020;5.536;2023-03-08T17:02:15;3.10;99.90
67777;DHT22;54576;52.020;5.536;2023-03-08T17:04:42;3.10;99.90
67777;DHT22;54576;52.020;5.536;2023-03-08T17:07:09;3.00;99.90
67777;DHT22;54576;52.020;5.536;2023-03-08T17:09:35;3.00;99.90
67777;DHT22;54576;52.020;5.536;2023-03-08T17:12:01;3.00;99.90